sensor_id;sensor_type;location;lat;lon;timestamp;P1;durP1;ratioP1;P2;durP2;ratioP2
5357;SDS011;2702;51.014;7.170;2022-12-13T00:01:34;24.97;;;17.30;;
5357;SDS011;2702;51.014;7.170;2022-12-13T00:04:01;25.90;;;16.27;;
5357;SDS011;2702;51.014;7.170;2022-12-13T00:06:29;24.52;;;16.65;;
5357;SDS011;2702;51.014;7.170;2022-12-13T00:08:56;27.48;;;18.00;;
5357;SDS011;2702;51.014;7.170;2022-12-13T00:11:23;23.80;;;16.23;;
5357;SDS011;2702;51.014;7.170;2022-12-13T00:13:49;23.42;;;16.60;;
5357;SDS011;2702;51.014;7.170;2022-12-13T00:16:17;25.92;;;17.52;;
5357;SDS011;2702;51.014;7.170;2022-12-13T00:18:47;26.20;;;17.77;;
5357;SDS011;2702;51.014;7.170;2022-12-13T00:21:15;22.33;;;16.52;;
5357;SDS011;2702;51.014;7.170;2022-12-13T00:23:43;21.02;;;15.07;;
5357;SDS011;2702;51.014;7.170;2022-12-13T00:26:10;27.25;;;16.95;;
5357;SDS011;2702;51.014;7.170;2022-12-13T00:28:41;24.15;;;16.58;;
5357;SDS011;2702;51.014;7.170;2022-12-13T00:31:07;25.83;;;16.47;;
5357;SDS011;2702;51.014;7.170;2022-12-13T00:33:36;23.40;;;16.30;;
5357;SDS011;2702;51.014;7.170;2022-12-13T00:36:03;22.73;;;16.38;;
5357;SDS011;2702;51.014;7.170;2022-12-13T00:38:30;23.60;;;15.00;;
5357;SDS011;2702;51.014;7.170;2022-12-13T00:40:56;22.13;;;16.27;;
5357;SDS011;2702;51.014;7.170;2022-12-13T00:43:22;25.00;;;16.20;;
5357;SDS011;2702;51.014;7.170;2022-12-13T00:45:47;23.40;;;15.60;;
5357;SDS011;2702;51.014;7.170;2022-12-13T00:48:13;26.93;;;18.13;;
5357;SDS011;2702;51.014;7.170;2022-12-13T00:50:39;23.50;;;16.30;;
5357;SDS011;2702;51.014;7.170;2022-12-13T00:53:05;25.13;;;16.80;;
5357;SDS011;2702;51.014;7.170;2022-12-13T00:55:31;25.37;;;16.90;;
5357;SDS011;2702;51.014;7.170;2022-12-13T00:57:57;27.33;;;17.57;;
5357;SDS011;2702;51.014;7.170;2022-12-13T01:00:23;24.97;;;17.23;;
5357;SDS011;2702;51.014;7.170;2022-12-13T01:02:52;23.67;;;15.30;;
5357;SDS011;2702;51.014;7.170;2022-12-13T01:05:18;21.13;;;14.60;;
5357;SDS011;2702;51.014;7.170;2022-12-13T01:07:44;24.00;;;16.23;;
5357;SDS011;2702;51.014;7.170;2022-12-13T01:10:11;26.77;;;17.50;;
5357;SDS011;2702;51.014;7.170;2022-12-13T01:12:37;23.55;;;15.93;;
5357;SDS011;2702;51.014;7.170;2022-12-13T01:15:04;25.85;;;16.73;;
5357;SDS011;2702;51.014;7.170;2022-12-13T01:17:33;27.98;;;16.55;;
5357;SDS011;2702;51.014;7.170;2022-12-13T01:19:59;25.08;;;16.77;;
5357;SDS011;2702;51.014;7.170;2022-12-13T01:22:25;26.67;;;17.97;;
5357;SDS011;2702;51.014;7.170;2022-12-13T01:24:51;27.90;;;16.70;;
5357;SDS011;2702;51.014;7.170;2022-12-13T01:27:16;23.73;;;16.87;;
5357;SDS011;2702;51.014;7.170;2022-12-13T01:29:42;26.07;;;17.97;;
5357;SDS011;2702;51.014;7.170;2022-12-13T01:32:08;25.40;;;17.23;;
5357;SDS011;2702;51.014;7.170;2022-12-13T01:34:34;26.00;;;17.27;;
5357;SDS011;2702;51.014;7.170;2022-12-13T01:37:00;25.53;;;15.60;;
5357;SDS011;2702;51.014;7.170;2022-12-13T01:39:26;27.73;;;16.53;;
5357;SDS011;2702;51.014;7.170;2022-12-13T01:41:52;28.02;;;17.33;;
5357;SDS011;2702;51.014;7.170;2022-12-13T01:47:17;23.23;;;16.70;;
5357;SDS011;2702;51.014;7.170;2022-12-13T01:49:50;24.90;;;16.80;;
5357;SDS011;2702;51.014;7.170;2022-12-13T01:52:18;25.23;;;17.05;;
5357;SDS011;2702;51.014;7.170;2022-12-13T01:54:46;28.77;;;17.90;;
5357;SDS011;2702;51.014;7.170;2022-12-13T01:57:14;24.25;;;16.35;;
5357;SDS011;2702;51.014;7.170;2022-12-13T01:59:44;24.10;;;16.75;;
5357;SDS011;2702;51.014;7.170;2022-12-13T02:02:11;22.70;;;16.10;;
5357;SDS011;2702;51.014;7.170;2022-12-13T02:07:39;27.45;;;17.02;;
5357;SDS011;2702;51.014;7.170;2022-12-13T02:10:07;29.02;;;18.00;;
5357;SDS011;2702;51.014;7.170;2022-12-13T02:12:34;23.48;;;15.90;;
5357;SDS011;2702;51.014;7.170;2022-12-13T02:15:06;28.25;;;16.50;;
5357;SDS011;2702;51.014;7.170;2022-12-13T02:18:00;27.08;;;15.98;;
5357;SDS011;2702;51.014;7.170;2022-12-13T02:29:28;27.77;;;18.10;;
5357;SDS011;2702;51.014;7.170;2022-12-13T02:35:02;24.73;;;15.82;;
5357;SDS011;2702;51.014;7.170;2022-12-13T02:37:39;25.52;;;16.65;;
5357;SDS011;2702;51.014;7.170;2022-12-13T02:43:25;26.75;;;16.50;;
5357;SDS011;2702;51.014;7.170;2022-12-13T02:45:59;28.52;;;16.63;;
5357;SDS011;2702;51.014;7.170;2022-12-13T02:48:28;28.25;;;17.20;;
5357;SDS011;2702;51.014;7.170;2022-12-13T02:50:59;28.13;;;17.30;;
5357;SDS011;2702;51.014;7.170;2022-12-13T02:53:26;24.92;;;16.70;;
5357;SDS011;2702;51.014;7.170;2022-12-13T02:55:53;23.60;;;16.23;;
5357;SDS011;2702;51.014;7.170;2022-12-13T02:58:23;28.90;;;16.00;;
5357;SDS011;2702;51.014;7.170;2022-12-13T03:03:45;27.52;;;16.25;;
5357;SDS011;2702;51.014;7.170;2022-12-13T03:15:30;25.83;;;16.58;;
5357;SDS011;2702;51.014;7.170;2022-12-13T03:18:08;29.02;;;17.48;;
5357;SDS011;2702;51.014;7.170;2022-12-13T03:20:50;25.30;;;16.92;;
5357;SDS011;2702;51.014;7.170;2022-12-13T03:23:18;28.25;;;16.58;;
5357;SDS011;2702;51.014;7.170;2022-12-13T03:25:46;23.48;;;14.70;;
5357;SDS011;2702;51.014;7.170;2022-12-13T03:28:16;25.80;;;17.35;;
5357;SDS011;2702;51.014;7.170;2022-12-13T03:30:42;23.13;;;15.73;;
5357;SDS011;2702;51.014;7.170;2022-12-13T03:33:08;25.63;;;15.75;;
5357;SDS011;2702;51.014;7.170;2022-12-13T03:35:34;22.90;;;15.80;;
5357;SDS011;2702;51.014;7.170;2022-12-13T03:38:01;28.23;;;17.15;;
5357;SDS011;2702;51.014;7.170;2022-12-13T03:40:28;26.00;;;16.27;;
5357;SDS011;2702;51.014;7.170;2022-12-13T03:42:55;27.95;;;16.25;;
5357;SDS011;2702;51.014;7.170;2022-12-13T03:45:21;21.60;;;15.80;;
5357;SDS011;2702;51.014;7.170;2022-12-13T03:47:47;25.30;;;15.80;;
5357;SDS011;2702;51.014;7.170;2022-12-13T03:50:13;25.60;;;16.67;;
5357;SDS011;2702;51.014;7.170;2022-12-13T03:52:38;25.07;;;16.40;;
5357;SDS011;2702;51.014;7.170;2022-12-13T03:55:04;26.30;;;16.33;;
5357;SDS011;2702;51.014;7.170;2022-12-13T03:57:30;21.48;;;15.90;;
5357;SDS011;2702;51.014;7.170;2022-12-13T03:59:56;29.50;;;17.13;;
5357;SDS011;2702;51.014;7.170;2022-12-13T04:02:22;26.03;;;15.80;;
5357;SDS011;2702;51.014;7.170;2022-12-13T04:04:48;25.17;;;16.20;;
5357;SDS011;2702;51.014;7.170;2022-12-13T04:07:13;25.73;;;16.27;;
5357;SDS011;2702;51.014;7.170;2022-12-13T04:09:42;24.97;;;16.27;;
5357;SDS011;2702;51.014;7.170;2022-12-13T04:12:08;26.83;;;17.33;;
5357;SDS011;2702;51.014;7.170;2022-12-13T04:14:53;27.05;;;15.20;;
5357;SDS011;2702;51.014;7.170;2022-12-13T04:17:18;24.87;;;15.10;;
5357;SDS011;2702;51.014;7.170;2022-12-13T04:19:44;24.47;;;15.93;;
5357;SDS011;2702;51.014;7.170;2022-12-13T04:22:10;24.20;;;15.50;;
5357;SDS011;2702;51.014;7.170;2022-12-13T04:24:36;26.23;;;15.50;;
5357;SDS011;2702;51.014;7.170;2022-12-13T04:27:02;24.90;;;16.43;;
5357;SDS011;2702;51.014;7.170;2022-12-13T04:29:28;25.73;;;16.80;;
5357;SDS011;2702;51.014;7.170;2022-12-13T04:31:55;25.23;;;16.02;;
5357;SDS011;2702;51.014;7.170;2022-12-13T04:34:21;23.47;;;15.43;;
5357;SDS011;2702;51.014;7.170;2022-12-13T04:36:46;21.27;;;14.50;;
5357;SDS011;2702;51.014;7.170;2022-12-13T04:39:12;26.47;;;16.43;;
5357;SDS011;2702;51.014;7.170;2022-12-13T04:41:38;28.37;;;16.67;;
5357;SDS011;2702;51.014;7.170;2022-12-13T04:44:05;25.67;;;16.50;;
5357;SDS011;2702;51.014;7.170;2022-12-13T04:46:32;25.98;;;15.95;;
5357;SDS011;2702;51.014;7.170;2022-12-13T04:48:59;25.67;;;17.13;;
5357;SDS011;2702;51.014;7.170;2022-12-13T04:51:25;25.15;;;15.82;;
5357;SDS011;2702;51.014;7.170;2022-12-13T04:53:51;26.08;;;16.40;;
5357;SDS011;2702;51.014;7.170;2022-12-13T04:56:17;25.30;;;16.63;;
5357;SDS011;2702;51.014;7.170;2022-12-13T04:58:43;27.37;;;16.50;;
5357;SDS011;2702;51.014;7.170;2022-12-13T05:01:10;27.70;;;16.10;;
5357;SDS011;2702;51.014;7.170;2022-12-13T05:03:37;25.25;;;16.25;;
5357;SDS011;2702;51.014;7.170;2022-12-13T05:06:06;25.30;;;16.98;;
5357;SDS011;2702;51.014;7.170;2022-12-13T05:08:35;25.17;;;16.15;;
5357;SDS011;2702;51.014;7.170;2022-12-13T05:11:02;27.65;;;15.93;;
5357;SDS011;2702;51.014;7.170;2022-12-13T05:13:28;24.45;;;16.20;;
5357;SDS011;2702;51.014;7.170;2022-12-13T05:15:55;26.13;;;16.45;;
5357;SDS011;2702;51.014;7.170;2022-12-13T05:18:23;29.30;;;17.40;;
5357;SDS011;2702;51.014;7.170;2022-12-13T05:20:49;26.25;;;16.30;;
5357;SDS011;2702;51.014;7.170;2022-12-13T05:23:16;22.38;;;15.20;;
5357;SDS011;2702;51.014;7.170;2022-12-13T05:25:43;27.25;;;16.42;;
5357;SDS011;2702;51.014;7.170;2022-12-13T05:28:09;24.73;;;15.40;;
5357;SDS011;2702;51.014;7.170;2022-12-13T05:30:43;24.30;;;15.00;;
5357;SDS011;2702;51.014;7.170;2022-12-13T05:33:09;24.35;;;15.75;;
5357;SDS011;2702;51.014;7.170;2022-12-13T05:35:36;25.73;;;15.75;;
5357;SDS011;2702;51.014;7.170;2022-12-13T05:38:02;23.08;;;14.38;;
5357;SDS011;2702;51.014;7.170;2022-12-13T05:40:29;24.95;;;15.73;;
5357;SDS011;2702;51.014;7.170;2022-12-13T05:42:56;24.75;;;16.80;;
5357;SDS011;2702;51.014;7.170;2022-12-13T05:45:22;21.65;;;15.02;;
5357;SDS011;2702;51.014;7.170;2022-12-13T05:47:49;22.17;;;14.70;;
5357;SDS011;2702;51.014;7.170;2022-12-13T05:50:15;26.83;;;16.70;;
5357;SDS011;2702;51.014;7.170;2022-12-13T05:52:41;28.65;;;16.67;;
5357;SDS011;2702;51.014;7.170;2022-12-13T05:55:08;26.92;;;15.77;;
5357;SDS011;2702;51.014;7.170;2022-12-13T05:57:35;21.83;;;14.57;;
5357;SDS011;2702;51.014;7.170;2022-12-13T06:00:03;19.73;;;14.52;;
5357;SDS011;2702;51.014;7.170;2022-12-13T06:02:35;24.13;;;14.75;;
5357;SDS011;2702;51.014;7.170;2022-12-13T06:05:03;24.45;;;15.48;;
5357;SDS011;2702;51.014;7.170;2022-12-13T06:07:30;22.05;;;14.75;;
5357;SDS011;2702;51.014;7.170;2022-12-13T06:09:56;22.15;;;15.20;;
5357;SDS011;2702;51.014;7.170;2022-12-13T06:12:22;22.13;;;15.53;;
5357;SDS011;2702;51.014;7.170;2022-12-13T06:14:48;23.80;;;15.10;;
5357;SDS011;2702;51.014;7.170;2022-12-13T06:17:14;23.33;;;15.30;;
5357;SDS011;2702;51.014;7.170;2022-12-13T06:19:40;23.63;;;16.30;;
5357;SDS011;2702;51.014;7.170;2022-12-13T06:22:06;27.77;;;16.40;;
5357;SDS011;2702;51.014;7.170;2022-12-13T06:24:31;66.57;;;30.20;;
5357;SDS011;2702;51.014;7.170;2022-12-13T06:26:57;60.63;;;28.93;;
5357;SDS011;2702;51.014;7.170;2022-12-13T06:29:24;51.25;;;23.42;;
5357;SDS011;2702;51.014;7.170;2022-12-13T06:31:51;33.75;;;19.73;;
5357;SDS011;2702;51.014;7.170;2022-12-13T06:34:19;31.00;;;17.17;;
5357;SDS011;2702;51.014;7.170;2022-12-13T06:36:44;77.40;;;30.97;;
5357;SDS011;2702;51.014;7.170;2022-12-13T06:39:10;183.13;;;65.43;;
5357;SDS011;2702;51.014;7.170;2022-12-13T06:41:36;439.97;;;133.57;;
5357;SDS011;2702;51.014;7.170;2022-12-13T06:44:02;75.80;;;32.90;;
5357;SDS011;2702;51.014;7.170;2022-12-13T06:46:29;24.35;;;15.85;;
5357;SDS011;2702;51.014;7.170;2022-12-13T06:48:54;42.63;;;22.80;;
5357;SDS011;2702;51.014;7.170;2022-12-13T06:51:20;25.70;;;16.07;;
5357;SDS011;2702;51.014;7.170;2022-12-13T06:53:46;24.10;;;14.77;;
5357;SDS011;2702;51.014;7.170;2022-12-13T06:56:12;31.10;;;20.40;;
5357;SDS011;2702;51.014;7.170;2022-12-13T06:58:40;23.90;;;14.40;;
5357;SDS011;2702;51.014;7.170;2022-12-13T07:01:08;22.92;;;16.23;;
5357;SDS011;2702;51.014;7.170;2022-12-13T07:03:35;39.88;;;23.48;;
5357;SDS011;2702;51.014;7.170;2022-12-13T07:06:03;31.45;;;19.70;;
5357;SDS011;2702;51.014;7.170;2022-12-13T07:08:57;31.35;;;21.65;;
5357;SDS011;2702;51.014;7.170;2022-12-13T07:11:24;26.50;;;16.10;;
5357;SDS011;2702;51.014;7.170;2022-12-13T07:13:53;31.13;;;20.10;;
5357;SDS011;2702;51.014;7.170;2022-12-13T07:16:19;27.80;;;19.05;;
5357;SDS011;2702;51.014;7.170;2022-12-13T07:18:46;26.95;;;17.08;;
5357;SDS011;2702;51.014;7.170;2022-12-13T07:21:12;20.90;;;14.37;;
5357;SDS011;2702;51.014;7.170;2022-12-13T07:23:39;24.23;;;13.77;;
5357;SDS011;2702;51.014;7.170;2022-12-13T07:26:06;19.63;;;12.57;;
5357;SDS011;2702;51.014;7.170;2022-12-13T07:28:33;23.45;;;12.80;;
5357;SDS011;2702;51.014;7.170;2022-12-13T07:31:01;18.30;;;12.50;;
5357;SDS011;2702;51.014;7.170;2022-12-13T07:33:29;20.05;;;13.32;;
5357;SDS011;2702;51.014;7.170;2022-12-13T07:35:58;19.70;;;12.40;;
5357;SDS011;2702;51.014;7.170;2022-12-13T07:38:49;18.48;;;12.27;;
5357;SDS011;2702;51.014;7.170;2022-12-13T07:41:16;19.42;;;11.90;;
5357;SDS011;2702;51.014;7.170;2022-12-13T07:43:42;17.73;;;12.23;;
5357;SDS011;2702;51.014;7.170;2022-12-13T07:46:09;21.48;;;12.10;;
5357;SDS011;2702;51.014;7.170;2022-12-13T07:48:35;22.38;;;12.38;;
5357;SDS011;2702;51.014;7.170;2022-12-13T07:51:05;19.75;;;11.82;;
5357;SDS011;2702;51.014;7.170;2022-12-13T07:53:33;22.10;;;11.98;;
5357;SDS011;2702;51.014;7.170;2022-12-13T07:56:02;21.70;;;12.77;;
5357;SDS011;2702;51.014;7.170;2022-12-13T07:58:30;19.88;;;11.48;;
5357;SDS011;2702;51.014;7.170;2022-12-13T08:01:02;21.27;;;12.27;;
5357;SDS011;2702;51.014;7.170;2022-12-13T08:03:29;18.98;;;11.52;;
5357;SDS011;2702;51.014;7.170;2022-12-13T08:05:59;21.75;;;12.50;;
5357;SDS011;2702;51.014;7.170;2022-12-13T08:08:30;22.95;;;12.75;;
5357;SDS011;2702;51.014;7.170;2022-12-13T08:11:00;18.85;;;12.85;;
5357;SDS011;2702;51.014;7.170;2022-12-13T08:13:31;20.35;;;12.60;;
5357;SDS011;2702;51.014;7.170;2022-12-13T08:15:58;21.45;;;14.10;;
5357;SDS011;2702;51.014;7.170;2022-12-13T08:18:26;22.88;;;11.98;;
5357;SDS011;2702;51.014;7.170;2022-12-13T08:21:02;20.85;;;12.18;;
5357;SDS011;2702;51.014;7.170;2022-12-13T08:23:30;20.95;;;11.98;;
5357;SDS011;2702;51.014;7.170;2022-12-13T08:25:58;20.65;;;13.45;;
5357;SDS011;2702;51.014;7.170;2022-12-13T08:28:25;23.95;;;14.30;;
5357;SDS011;2702;51.014;7.170;2022-12-13T08:30:51;21.58;;;12.60;;
5357;SDS011;2702;51.014;7.170;2022-12-13T08:33:18;23.98;;;13.40;;
5357;SDS011;2702;51.014;7.170;2022-12-13T08:35:45;20.17;;;11.98;;
5357;SDS011;2702;51.014;7.170;2022-12-13T08:38:12;21.42;;;13.27;;
5357;SDS011;2702;51.014;7.170;2022-12-13T08:40:38;23.38;;;13.48;;
5357;SDS011;2702;51.014;7.170;2022-12-13T08:43:04;22.92;;;13.43;;
5357;SDS011;2702;51.014;7.170;2022-12-13T08:45:30;20.33;;;12.93;;
5357;SDS011;2702;51.014;7.170;2022-12-13T08:47:58;20.73;;;12.25;;
5357;SDS011;2702;51.014;7.170;2022-12-13T08:50:26;22.67;;;12.88;;
5357;SDS011;2702;51.014;7.170;2022-12-13T08:52:52;20.40;;;12.85;;
5357;SDS011;2702;51.014;7.170;2022-12-13T08:55:18;22.20;;;12.50;;
5357;SDS011;2702;51.014;7.170;2022-12-13T08:57:44;17.77;;;11.93;;
5357;SDS011;2702;51.014;7.170;2022-12-13T09:00:11;21.60;;;13.43;;
5357;SDS011;2702;51.014;7.170;2022-12-13T09:02:39;22.95;;;14.13;;
5357;SDS011;2702;51.014;7.170;2022-12-13T09:05:05;22.67;;;13.57;;
5357;SDS011;2702;51.014;7.170;2022-12-13T09:07:33;19.13;;;12.02;;
5357;SDS011;2702;51.014;7.170;2022-12-13T09:10:00;20.80;;;13.68;;
5357;SDS011;2702;51.014;7.170;2022-12-13T09:12:26;21.42;;;12.73;;
5357;SDS011;2702;51.014;7.170;2022-12-13T09:14:52;17.93;;;12.87;;
5357;SDS011;2702;51.014;7.170;2022-12-13T09:17:18;17.80;;;11.93;;
5357;SDS011;2702;51.014;7.170;2022-12-13T09:19:44;18.47;;;12.40;;
5357;SDS011;2702;51.014;7.170;2022-12-13T09:22:10;19.47;;;12.97;;
5357;SDS011;2702;51.014;7.170;2022-12-13T09:24:36;16.25;;;12.00;;
5357;SDS011;2702;51.014;7.170;2022-12-13T09:27:03;20.30;;;12.83;;
5357;SDS011;2702;51.014;7.170;2022-12-13T09:29:31;20.70;;;12.48;;
5357;SDS011;2702;51.014;7.170;2022-12-13T09:31:57;24.23;;;13.85;;
5357;SDS011;2702;51.014;7.170;2022-12-13T09:34:24;22.17;;;12.45;;
5357;SDS011;2702;51.014;7.170;2022-12-13T09:36:50;17.93;;;11.93;;
5357;SDS011;2702;51.014;7.170;2022-12-13T09:39:16;19.80;;;11.90;;
5357;SDS011;2702;51.014;7.170;2022-12-13T09:41:49;16.87;;;11.57;;
5357;SDS011;2702;51.014;7.170;2022-12-13T09:44:26;19.00;;;12.50;;
5357;SDS011;2702;51.014;7.170;2022-12-13T09:47:00;19.63;;;11.77;;
5357;SDS011;2702;51.014;7.170;2022-12-13T09:49:39;21.58;;;12.63;;
5357;SDS011;2702;51.014;7.170;2022-12-13T09:52:13;20.70;;;12.60;;
5357;SDS011;2702;51.014;7.170;2022-12-13T09:54:43;15.88;;;11.18;;
5357;SDS011;2702;51.014;7.170;2022-12-13T09:57:28;17.48;;;11.90;;
5357;SDS011;2702;51.014;7.170;2022-12-13T09:59:55;21.42;;;11.80;;
5357;SDS011;2702;51.014;7.170;2022-12-13T10:02:26;21.05;;;12.80;;
5357;SDS011;2702;51.014;7.170;2022-12-13T10:07:41;19.52;;;12.45;;
5357;SDS011;2702;51.014;7.170;2022-12-13T10:10:08;20.75;;;13.38;;
5357;SDS011;2702;51.014;7.170;2022-12-13T10:12:38;18.60;;;12.25;;
5357;SDS011;2702;51.014;7.170;2022-12-13T10:15:06;20.30;;;12.27;;
5357;SDS011;2702;51.014;7.170;2022-12-13T10:17:36;18.30;;;11.98;;
5357;SDS011;2702;51.014;7.170;2022-12-13T10:20:05;19.08;;;12.77;;
5357;SDS011;2702;51.014;7.170;2022-12-13T10:22:32;16.80;;;11.85;;
5357;SDS011;2702;51.014;7.170;2022-12-13T10:24:59;16.30;;;11.50;;
5357;SDS011;2702;51.014;7.170;2022-12-13T10:28:02;21.40;;;12.13;;
5357;SDS011;2702;51.014;7.170;2022-12-13T10:30:21;19.45;;;11.95;;
5357;SDS011;2702;51.014;7.170;2022-12-13T10:32:53;15.75;;;10.40;;
5357;SDS011;2702;51.014;7.170;2022-12-13T10:38:02;19.13;;;12.55;;
5357;SDS011;2702;51.014;7.170;2022-12-13T10:40:44;21.67;;;12.40;;
5357;SDS011;2702;51.014;7.170;2022-12-13T10:43:14;19.70;;;11.82;;
5357;SDS011;2702;51.014;7.170;2022-12-13T10:51:18;17.60;;;11.65;;
5357;SDS011;2702;51.014;7.170;2022-12-13T10:53:47;15.90;;;11.27;;
5357;SDS011;2702;51.014;7.170;2022-12-13T10:56:22;14.85;;;9.50;;
5357;SDS011;2702;51.014;7.170;2022-12-13T10:59:09;14.48;;;10.07;;
5357;SDS011;2702;51.014;7.170;2022-12-13T11:01:45;15.93;;;10.88;;
5357;SDS011;2702;51.014;7.170;2022-12-13T11:06:58;14.27;;;9.63;;
5357;SDS011;2702;51.014;7.170;2022-12-13T11:09:42;17.80;;;10.73;;
5357;SDS011;2702;51.014;7.170;2022-12-13T11:12:15;16.80;;;10.63;;
5357;SDS011;2702;51.014;7.170;2022-12-13T11:14:53;15.48;;;10.07;;
5357;SDS011;2702;51.014;7.170;2022-12-13T11:17:24;17.10;;;11.02;;
5357;SDS011;2702;51.014;7.170;2022-12-13T11:20:06;13.70;;;9.63;;
5357;SDS011;2702;51.014;7.170;2022-12-13T11:22:39;11.57;;;9.57;;
5357;SDS011;2702;51.014;7.170;2022-12-13T11:25:22;16.05;;;10.32;;
5357;SDS011;2702;51.014;7.170;2022-12-13T11:28:02;13.52;;;10.07;;
5357;SDS011;2702;51.014;7.170;2022-12-13T11:33:41;15.43;;;10.75;;
5357;SDS011;2702;51.014;7.170;2022-12-13T11:41:51;16.83;;;10.80;;
5357;SDS011;2702;51.014;7.170;2022-12-13T11:47:21;14.25;;;10.02;;
5357;SDS011;2702;51.014;7.170;2022-12-13T11:49:52;15.05;;;10.65;;
5357;SDS011;2702;51.014;7.170;2022-12-13T11:52:24;15.32;;;10.27;;
5357;SDS011;2702;51.014;7.170;2022-12-13T12:06:20;13.95;;;9.88;;
5357;SDS011;2702;51.014;7.170;2022-12-13T12:08:58;14.50;;;9.80;;
5357;SDS011;2702;51.014;7.170;2022-12-13T12:14:14;12.90;;;9.48;;
5357;SDS011;2702;51.014;7.170;2022-12-13T12:16:56;12.98;;;8.50;;
5357;SDS011;2702;51.014;7.170;2022-12-13T12:19:24;14.23;;;8.63;;
5357;SDS011;2702;51.014;7.170;2022-12-13T12:22:16;10.65;;;9.02;;
5357;SDS011;2702;51.014;7.170;2022-12-13T12:27:19;12.32;;;8.23;;
5357;SDS011;2702;51.014;7.170;2022-12-13T12:33:02;12.05;;;8.75;;
5357;SDS011;2702;51.014;7.170;2022-12-13T12:35:15;11.27;;;8.30;;
5357;SDS011;2702;51.014;7.170;2022-12-13T12:37:52;11.10;;;7.93;;
5357;SDS011;2702;51.014;7.170;2022-12-13T12:40:32;12.07;;;8.38;;
5357;SDS011;2702;51.014;7.170;2022-12-13T12:43:01;13.07;;;8.60;;
5357;SDS011;2702;51.014;7.170;2022-12-13T12:45:45;10.27;;;8.13;;
5357;SDS011;2702;51.014;7.170;2022-12-13T12:52:27;13.20;;;8.00;;
5357;SDS011;2702;51.014;7.170;2022-12-13T12:54:31;11.30;;;8.20;;
5357;SDS011;2702;51.014;7.170;2022-12-13T12:57:38;10.73;;;8.15;;
5357;SDS011;2702;51.014;7.170;2022-12-13T13:00:41;11.00;;;7.72;;
5357;SDS011;2702;51.014;7.170;2022-12-13T13:03:30;10.65;;;8.15;;
5357;SDS011;2702;51.014;7.170;2022-12-13T13:06:01;12.50;;;8.35;;
5357;SDS011;2702;51.014;7.170;2022-12-13T13:08:37;11.50;;;7.85;;
5357;SDS011;2702;51.014;7.170;2022-12-13T13:11:24;10.63;;;7.85;;
5357;SDS011;2702;51.014;7.170;2022-12-13T13:18:54;13.48;;;7.90;;
5357;SDS011;2702;51.014;7.170;2022-12-13T13:26:30;9.63;;;6.72;;
5357;SDS011;2702;51.014;7.170;2022-12-13T13:34:23;9.70;;;7.30;;
5357;SDS011;2702;51.014;7.170;2022-12-13T13:36:51;9.45;;;6.47;;
5357;SDS011;2702;51.014;7.170;2022-12-13T13:47:11;7.63;;;6.68;;
5357;SDS011;2702;51.014;7.170;2022-12-13T13:53:08;7.95;;;6.40;;
5357;SDS011;2702;51.014;7.170;2022-12-13T14:04:57;9.27;;;6.70;;
5357;SDS011;2702;51.014;7.170;2022-12-13T14:22:12;8.13;;;5.82;;
5357;SDS011;2702;51.014;7.170;2022-12-13T14:30:11;10.60;;;6.95;;
5357;SDS011;2702;51.014;7.170;2022-12-13T14:32:39;10.88;;;7.45;;
5357;SDS011;2702;51.014;7.170;2022-12-13T14:35:19;11.93;;;7.32;;
5357;SDS011;2702;51.014;7.170;2022-12-13T14:37:59;9.75;;;6.82;;
5357;SDS011;2702;51.014;7.170;2022-12-13T14:40:33;10.73;;;7.30;;
5357;SDS011;2702;51.014;7.170;2022-12-13T14:43:01;10.63;;;7.20;;
5357;SDS011;2702;51.014;7.170;2022-12-13T14:45:28;10.25;;;7.70;;
5357;SDS011;2702;51.014;7.170;2022-12-13T14:47:58;11.80;;;8.57;;
5357;SDS011;2702;51.014;7.170;2022-12-13T14:50:28;10.57;;;7.78;;
5357;SDS011;2702;51.014;7.170;2022-12-13T14:52:57;13.13;;;9.02;;
5357;SDS011;2702;51.014;7.170;2022-12-13T14:55:33;10.23;;;7.03;;
5357;SDS011;2702;51.014;7.170;2022-12-13T14:58:02;10.98;;;7.68;;
5357;SDS011;2702;51.014;7.170;2022-12-13T15:00:41;12.52;;;8.35;;
5357;SDS011;2702;51.014;7.170;2022-12-13T15:03:10;10.65;;;7.40;;
5357;SDS011;2702;51.014;7.170;2022-12-13T15:06:00;10.48;;;8.10;;
5357;SDS011;2702;51.014;7.170;2022-12-13T15:08:28;11.60;;;7.80;;
5357;SDS011;2702;51.014;7.170;2022-12-13T15:10:58;10.60;;;7.55;;
5357;SDS011;2702;51.014;7.170;2022-12-13T15:13:25;11.40;;;7.40;;
5357;SDS011;2702;51.014;7.170;2022-12-13T15:15:52;8.90;;;6.88;;
5357;SDS011;2702;51.014;7.170;2022-12-13T15:18:22;10.15;;;7.15;;
5357;SDS011;2702;51.014;7.170;2022-12-13T15:20:50;12.13;;;7.60;;
5357;SDS011;2702;51.014;7.170;2022-12-13T15:25:58;10.85;;;9.75;;
5357;SDS011;2702;51.014;7.170;2022-12-13T15:28:27;13.13;;;9.20;;
5357;SDS011;2702;51.014;7.170;2022-12-13T15:30:57;29.08;;;26.05;;
5357;SDS011;2702;51.014;7.170;2022-12-13T15:33:25;15.48;;;11.82;;
5357;SDS011;2702;51.014;7.170;2022-12-13T15:36:06;13.60;;;10.05;;
5357;SDS011;2702;51.014;7.170;2022-12-13T15:41:23;41.15;;;23.20;;
5357;SDS011;2702;51.014;7.170;2022-12-13T15:44:15;38.15;;;21.83;;
5357;SDS011;2702;51.014;7.170;2022-12-13T15:46:48;30.17;;;16.63;;
5357;SDS011;2702;51.014;7.170;2022-12-13T15:51:57;14.10;;;8.52;;
5357;SDS011;2702;51.014;7.170;2022-12-13T15:54:26;12.63;;;8.25;;
5357;SDS011;2702;51.014;7.170;2022-12-13T15:57:01;23.58;;;16.75;;
5357;SDS011;2702;51.014;7.170;2022-12-13T15:59:46;12.48;;;8.75;;
5357;SDS011;2702;51.014;7.170;2022-12-13T16:02:16;15.75;;;10.70;;
5357;SDS011;2702;51.014;7.170;2022-12-13T16:04:48;11.48;;;8.02;;
5357;SDS011;2702;51.014;7.170;2022-12-13T16:07:22;9.50;;;7.22;;
5357;SDS011;2702;51.014;7.170;2022-12-13T16:09:53;9.18;;;6.70;;
5357;SDS011;2702;51.014;7.170;2022-12-13T16:12:34;8.73;;;5.97;;
5357;SDS011;2702;51.014;7.170;2022-12-13T16:15:13;9.70;;;7.07;;
5357;SDS011;2702;51.014;7.170;2022-12-13T16:17:47;10.05;;;7.30;;
5357;SDS011;2702;51.014;7.170;2022-12-13T16:20:15;11.10;;;7.13;;
5357;SDS011;2702;51.014;7.170;2022-12-13T16:22:43;9.50;;;6.38;;
5357;SDS011;2702;51.014;7.170;2022-12-13T16:25:14;8.85;;;6.65;;
5357;SDS011;2702;51.014;7.170;2022-12-13T16:27:42;8.57;;;6.82;;
5357;SDS011;2702;51.014;7.170;2022-12-13T16:30:11;8.57;;;6.85;;
5357;SDS011;2702;51.014;7.170;2022-12-13T16:32:38;53.33;;;32.22;;
5357;SDS011;2702;51.014;7.170;2022-12-13T16:35:05;18.77;;;13.80;;
5357;SDS011;2702;51.014;7.170;2022-12-13T16:37:31;16.67;;;13.57;;
5357;SDS011;2702;51.014;7.170;2022-12-13T16:39:56;12.80;;;10.50;;
5357;SDS011;2702;51.014;7.170;2022-12-13T16:42:26;16.55;;;14.15;;
5357;SDS011;2702;51.014;7.170;2022-12-13T16:44:52;17.63;;;15.82;;
5357;SDS011;2702;51.014;7.170;2022-12-13T16:47:20;10.75;;;8.52;;
5357;SDS011;2702;51.014;7.170;2022-12-13T16:49:46;13.97;;;9.43;;
5357;SDS011;2702;51.014;7.170;2022-12-13T16:52:13;12.40;;;9.48;;
5357;SDS011;2702;51.014;7.170;2022-12-13T16:54:40;10.18;;;7.40;;
5357;SDS011;2702;51.014;7.170;2022-12-13T16:57:07;10.80;;;8.07;;
5357;SDS011;2702;51.014;7.170;2022-12-13T16:59:33;9.50;;;6.80;;
5357;SDS011;2702;51.014;7.170;2022-12-13T17:01:59;9.27;;;6.70;;
5357;SDS011;2702;51.014;7.170;2022-12-13T17:04:25;10.70;;;6.70;;
5357;SDS011;2702;51.014;7.170;2022-12-13T17:06:51;13.50;;;6.60;;
5357;SDS011;2702;51.014;7.170;2022-12-13T17:09:17;9.70;;;7.22;;
5357;SDS011;2702;51.014;7.170;2022-12-13T17:11:43;8.33;;;6.00;;
5357;SDS011;2702;51.014;7.170;2022-12-13T17:14:09;10.80;;;7.00;;
5357;SDS011;2702;51.014;7.170;2022-12-13T17:16:35;12.77;;;10.07;;
5357;SDS011;2702;51.014;7.170;2022-12-13T17:19:02;10.27;;;7.13;;
5357;SDS011;2702;51.014;7.170;2022-12-13T17:21:28;9.10;;;6.55;;
5357;SDS011;2702;51.014;7.170;2022-12-13T17:23:54;10.17;;;6.97;;
5357;SDS011;2702;51.014;7.170;2022-12-13T17:26:21;9.60;;;6.60;;
5357;SDS011;2702;51.014;7.170;2022-12-13T17:28:48;8.50;;;6.40;;
5357;SDS011;2702;51.014;7.170;2022-12-13T17:31:14;9.27;;;6.68;;
5357;SDS011;2702;51.014;7.170;2022-12-13T17:33:41;9.25;;;6.20;;